Orakai — ZDNX7 — position and weather

sailwx.info

Track history (hours):
 
Tides and Currents Weather Stations Pressure Air Temp Water Temp Dewpoint Dewpoint Depression Visibility Wind Speed Wind Dir Waves Ship Positions

Orakai

Last reported at 2018-Feb-19 01:02 UTC. Time now 2018-Feb-20 06:16 UTC.
Position N 37°23' W 009°48'.

Length 103 m; draft 5.4 m.

Type: Tanker. MMSI: 236646000.

Date/timePositionNaut miles runAvg speedWind from/ knotsBaromVisibWave heightAir tempDewpointWater temp
2018-Feb-19 01:02N 37°23' W 009°48'012.8
2018-Feb-19 01:00N 37°23' W 009°49'713.0
2018-Feb-19 00:30N 37°30' W 009°51'1412.5
2018-Feb-18 23:24N 37°43' W 009°55'512.3
2018-Feb-18 23:00N 37°48' W 009°56'612.6
2018-Feb-18 22:30N 37°54' W 009°58'613.0
2018-Feb-18 22:00N 38°00' W 009°60'713.0
2018-Feb-18 21:30N 38°06' W 010°02'713.2
2018-Feb-18 21:00N 38°13' W 010°03'713.0
2018-Feb-18 20:30N 38°19' W 010°05'712.9
2018-Feb-18 20:00N 38°26' W 010°07'612.8
2018-Feb-18 19:30N 38°32' W 010°09'713.0
2018-Feb-18 18:56N 38°39' W 010°11'612.9
2018-Feb-18 18:30N 38°44' W 010°12'812.8
2018-Feb-18 17:52N 38°53' W 010°12'412.7
2018-Feb-18 17:30N 38°57' W 010°12'612.7
2018-Feb-18 17:00N 39°04' W 010°12'612.8
2018-Feb-18 16:30N 39°10' W 010°12'  
2018-Feb-16 10:44N 45°36' W 001°22'313.0
2018-Feb-16 10:30N 45°38' W 001°19'714.1
2018-Feb-16 10:00N 45°39' W 001°09'714.0
2018-Feb-16 09:30N 45°34' W 001°02'816.4
2018-Feb-16 09:00N 45°27' W 000°54'815.0
2018-Feb-16 08:30N 45°21' W 000°48'5 0.1
2018-Feb-14 13:51N 45°16' W 000°45'514.9
2018-Feb-14 13:30N 45°21' W 000°48'714.8
2018-Feb-14 13:00N 45°27' W 000°54'714.5
2018-Feb-14 12:30N 45°33' W 001°01'611.5
2018-Feb-14 12:00N 45°37' W 001°06'611.8
2018-Feb-14 11:30N 45°39' W 001°14'611.8
2018-Feb-14 11:00N 45°37' W 001°21'4 7.0
2018-Feb-14 10:26N 45°35' W 001°27'2 0.2
2018-Feb-14 03:13N 45°35' W 001°29'2 5.2
2018-Feb-14 02:47N 45°34' W 001°32'177 8.4
2018-Feb-13 05:41N 47°37' W 004°37'410.3
2018-Feb-13 05:18N 47°39' W 004°41'3 9.8
2018-Feb-13 05:00N 47°41' W 004°45'510.0
2018-Feb-13 04:29N 47°43' W 004°52'6 8.6
2018-Feb-13 03:49N 47°47' W 004°59'2 5.4
2018-Feb-13 03:29N 47°48' W 005°00'3 6.3
2018-Feb-13 03:00N 47°51' W 005°02'4 7.7
2018-Feb-13 02:29N 47°53' W 005°07'4 8.1
2018-Feb-13 02:00N 47°56' W 005°11'4 6.6
2018-Feb-13 01:29N 47°60' W 005°12'3 6.5
2018-Feb-13 01:00N 48°03' W 005°11'3 7.0
2018-Feb-13 00:30N 48°06' W 005°11'4 7.6
2018-Feb-13 00:01N 48°09' W 005°08'4 8.2
2018-Feb-12 23:30N 48°11' W 005°03'4 8.8
2018-Feb-12 23:01N 48°13' W 004°57'5 9.5
2018-Feb-12 22:31N 48°16' W 004°50'5 9.5
2018-Feb-12 22:01N 48°18' W 004°44'510.4
2018-Feb-12 21:31N 48°20' W 004°37'5 9.9
2018-Feb-12 21:00N 48°21' W 004°30'2 4.7
2018-Feb-12 20:30N 48°23' W 004°27'0 0.0
2018-Feb-12 20:00N 48°23' W 004°27'0 0.0
2018-Feb-12 19:30N 48°23' W 004°27'0 0.0
2018-Feb-12 19:00N 48°23' W 004°27'0 0.0
2018-Feb-12 18:30N 48°23' W 004°27'0 0.0
2018-Feb-12 18:00N 48°23' W 004°27'0 0.0
2018-Feb-12 17:30N 48°23' W 004°27'0 0.0
2018-Feb-12 17:00N 48°23' W 004°27'0 0.0
2018-Feb-12 16:30N 48°23' W 004°27'0 0.0
2018-Feb-12 16:00N 48°23' W 004°27'0 0.0
2018-Feb-12 15:30N 48°23' W 004°27'0 0.0
2018-Feb-12 15:00N 48°23' W 004°27'0 0.0
2018-Feb-12 14:30N 48°23' W 004°27'0 0.0
2018-Feb-12 14:00N 48°23' W 004°27'0 0.0
2018-Feb-12 13:30N 48°23' W 004°27'0 0.2
2018-Feb-12 13:00N 48°23' W 004°27'2 4.4
2018-Feb-12 12:31N 48°21' W 004°30'713.1
2018-Feb-12 12:01N 48°19' W 004°39'611.3
2018-Feb-12 11:30N 48°17' W 004°47'612.2
2018-Feb-12 11:00N 48°13' W 004°54'612.2
2018-Feb-12 10:30N 48°09' W 005°01'612.3
2018-Feb-12 10:00N 48°05' W 005°08'5 9.3
2018-Feb-12 09:29N 48°00' W 005°09'510.5
2018-Feb-12 08:58N 47°57' W 005°03'510.7
2018-Feb-12 08:29N 47°53' W 004°58'510.5
2018-Feb-12 08:00N 47°49' W 004°52'710.5
2018-Feb-12 07:23N 47°44' W 004°46'410.3
2018-Feb-12 07:00N 47°42' W 004°42'610.1
2018-Feb-12 06:24N 47°38' W 004°35'510.0
2018-Feb-12 05:55N 47°35' W 004°29'5 9.6
2018-Feb-12 05:26N 47°32' W 004°24'5 9.9
2018-Feb-12 04:56N 47°29' W 004°18'23 9.8
2018-Feb-12 02:33N 47°14' W 003°51'110.4
2018-Feb-12 02:30N 47°14' W 003°50'510.0
2018-Feb-12 01:57N 47°11' W 003°44'4 9.8
2018-Feb-12 01:30N 47°08' W 003°39'6 9.8
2018-Feb-12 00:53N 47°04' W 003°32'56 9.6
2018-Feb-11 19:06N 46°29' W 002°28'110.2
2018-Feb-11 18:58N 46°29' W 002°27'510.1
2018-Feb-11 18:30N 46°26' W 002°21'510.2
2018-Feb-11 18:00N 46°23' W 002°16'510.1
2018-Feb-11 17:30N 46°19' W 002°10'510.2
2018-Feb-11 17:00N 46°16' W 002°04'510.2
2018-Feb-11 16:30N 46°13' W 001°58'510.4
2018-Feb-11 16:00N 46°10' W 001°52'5 9.9
2018-Feb-11 15:30N 46°09' W 001°46'510.3
2018-Feb-11 15:00N 46°08' W 001°38'510.6
2018-Feb-11 14:30N 46°07' W 001°31'611.2
2018-Feb-11 14:00N 46°07' W 001°23'510.1
2018-Feb-11 13:30N 46°07' W 001°15'3 5.1
2018-Feb-11 12:59N 46°09' W 001°14'0 0.0
2018-Feb-11 12:29N 46°09' W 001°14'0 0.0
2018-Feb-11 11:59N 46°09' W 001°14'0 0.0
2018-Feb-11 11:29N 46°09' W 001°14'0 0.0
2018-Feb-11 10:59N 46°09' W 001°14'0 0.0
2018-Feb-11 10:29N 46°09' W 001°14'0 0.0
2018-Feb-11 09:59N 46°09' W 001°14'0 0.0
2018-Feb-11 09:29N 46°09' W 001°14'0 0.0
2018-Feb-11 08:59N 46°09' W 001°14'0 0.0
2018-Feb-11 08:29N 46°09' W 001°14'0 0.0
2018-Feb-11 07:59N 46°09' W 001°14'0 0.0
2018-Feb-11 07:29N 46°09' W 001°14'0 0.0
2018-Feb-11 06:59N 46°09' W 001°14'0 0.0
2018-Feb-11 06:29N 46°09' W 001°14'0 0.0
2018-Feb-11 05:59N 46°09' W 001°14'0 0.0
2018-Feb-11 05:29N 46°09' W 001°14'0 0.0
2018-Feb-11 04:59N 46°09' W 001°14'0 0.0
2018-Feb-11 04:29N 46°09' W 001°14'0 0.0
2018-Feb-11 03:59N 46°09' W 001°14'0 0.0
2018-Feb-11 03:29N 46°09' W 001°14'0 0.0
2018-Feb-11 02:59N 46°09' W 001°14'0 0.0
2018-Feb-11 02:29N 46°09' W 001°14'0 0.0
2018-Feb-11 01:59N 46°09' W 001°14'0 0.0
2018-Feb-11 01:29N 46°09' W 001°14'0 0.0
2018-Feb-11 01:00N 46°09' W 001°14'0 0.4
2018-Feb-11 00:30N 46°09' W 001°14'4 7.1
2018-Feb-11 00:00N 46°06' W 001°15'1 1.3
2018-Feb-10 23:28N 46°05' W 001°15'0 0.0
2018-Feb-10 22:58N 46°05' W 001°15'0 0.0
2018-Feb-10 22:28N 46°05' W 001°15'0 0.0
2018-Feb-10 21:58N 46°05' W 001°15'0 0.0
2018-Feb-10 21:28N 46°05' W 001°15'0 0.0
2018-Feb-10 20:58N 46°05' W 001°15'0 0.1
2018-Feb-10 20:31N 46°05' W 001°15'2 4.6
2018-Feb-10 20:00N 46°06' W 001°18'612.5
2018-Feb-10 19:30N 46°07' W 001°27'611.8
2018-Feb-10 19:00N 46°07' W 001°36'510.6
2018-Feb-10 18:30N 46°02' W 001°38'510.8
2018-Feb-10 18:00N 45°57' W 001°38'16 9.9
2018-Feb-10 16:25N 45°42' W 001°30'510.0
2018-Feb-10 15:58N 45°38' W 001°26'4 8.4
2018-Feb-10 15:30N 45°37' W 001°21'510.1
2018-Feb-10 14:58N 45°39' W 001°15'511.3
2018-Feb-10 14:30N 45°38' W 001°07'611.1
2018-Feb-10 14:00N 45°34' W 001°02'611.7
2018-Feb-10 13:30N 45°30' W 000°57'611.0
2018-Feb-10 13:00N 45°25' W 000°52'510.7
2018-Feb-10 12:30N 45°21' W 000°48'810.5
2018-Feb-10 11:45N 45°13' W 000°44'133 4.6
2018-Feb-09 07:00N 47°08' W 002°22'4 8.0
2018-Feb-09 06:30N 47°11' W 002°18'10 9.9
2018-Feb-09 05:30N 47°18' W 002°08'  
Track history (hours):
 
Tides and Currents Weather Stations Pressure Air Temp Water Temp Dewpoint Dewpoint Depression Visibility Wind Speed Wind Dir Waves Ship Positions

Orakai

Last reported at 2018-Feb-19 01:02 UTC. Time now 2018-Feb-20 06:16 UTC.
Position N 37°23' W 009°48'.

Length 103 m; draft 5.4 m.

Type: Tanker. MMSI: 236646000.

Date/timePositionNaut miles runAvg speedWind from/ knotsBaromVisibWave heightAir tempDewpointWater temp
2018-Feb-19 01:02N 37°23' W 009°48'012.8
2018-Feb-19 01:00N 37°23' W 009°49'713.0
2018-Feb-19 00:30N 37°30' W 009°51'1412.5
2018-Feb-18 23:24N 37°43' W 009°55'512.3
2018-Feb-18 23:00N 37°48' W 009°56'612.6
2018-Feb-18 22:30N 37°54' W 009°58'613.0
2018-Feb-18 22:00N 38°00' W 009°60'713.0
2018-Feb-18 21:30N 38°06' W 010°02'713.2
2018-Feb-18 21:00N 38°13' W 010°03'713.0
2018-Feb-18 20:30N 38°19' W 010°05'712.9
2018-Feb-18 20:00N 38°26' W 010°07'612.8
2018-Feb-18 19:30N 38°32' W 010°09'713.0
2018-Feb-18 18:56N 38°39' W 010°11'612.9
2018-Feb-18 18:30N 38°44' W 010°12'812.8
2018-Feb-18 17:52N 38°53' W 010°12'412.7
2018-Feb-18 17:30N 38°57' W 010°12'612.7
2018-Feb-18 17:00N 39°04' W 010°12'612.8
2018-Feb-18 16:30N 39°10' W 010°12'  
2018-Feb-16 10:44N 45°36' W 001°22'313.0
2018-Feb-16 10:30N 45°38' W 001°19'714.1
2018-Feb-16 10:00N 45°39' W 001°09'714.0
2018-Feb-16 09:30N 45°34' W 001°02'816.4
2018-Feb-16 09:00N 45°27' W 000°54'815.0
2018-Feb-16 08:30N 45°21' W 000°48'5 0.1
2018-Feb-14 13:51N 45°16' W 000°45'514.9
2018-Feb-14 13:30N 45°21' W 000°48'714.8
2018-Feb-14 13:00N 45°27' W 000°54'714.5
2018-Feb-14 12:30N 45°33' W 001°01'611.5
2018-Feb-14 12:00N 45°37' W 001°06'611.8
2018-Feb-14 11:30N 45°39' W 001°14'611.8
2018-Feb-14 11:00N 45°37' W 001°21'4 7.0
2018-Feb-14 10:26N 45°35' W 001°27'2 0.2
2018-Feb-14 03:13N 45°35' W 001°29'2 5.2
2018-Feb-14 02:47N 45°34' W 001°32'177 8.4
2018-Feb-13 05:41N 47°37' W 004°37'410.3
2018-Feb-13 05:18N 47°39' W 004°41'3 9.8
2018-Feb-13 05:00N 47°41' W 004°45'510.0
2018-Feb-13 04:29N 47°43' W 004°52'6 8.6
2018-Feb-13 03:49N 47°47' W 004°59'2 5.4
2018-Feb-13 03:29N 47°48' W 005°00'3 6.3
2018-Feb-13 03:00N 47°51' W 005°02'4 7.7
2018-Feb-13 02:29N 47°53' W 005°07'4 8.1
2018-Feb-13 02:00N 47°56' W 005°11'4 6.6
2018-Feb-13 01:29N 47°60' W 005°12'3 6.5
2018-Feb-13 01:00N 48°03' W 005°11'3 7.0
2018-Feb-13 00:30N 48°06' W 005°11'4 7.6
2018-Feb-13 00:01N 48°09' W 005°08'4 8.2
2018-Feb-12 23:30N 48°11' W 005°03'4 8.8
2018-Feb-12 23:01N 48°13' W 004°57'5 9.5
2018-Feb-12 22:31N 48°16' W 004°50'5 9.5
2018-Feb-12 22:01N 48°18' W 004°44'510.4
2018-Feb-12 21:31N 48°20' W 004°37'5 9.9
2018-Feb-12 21:00N 48°21' W 004°30'2 4.7
2018-Feb-12 20:30N 48°23' W 004°27'0 0.0
2018-Feb-12 20:00N 48°23' W 004°27'0 0.0
2018-Feb-12 19:30N 48°23' W 004°27'0 0.0
2018-Feb-12 19:00N 48°23' W 004°27'0 0.0
2018-Feb-12 18:30N 48°23' W 004°27'0 0.0
2018-Feb-12 18:00N 48°23' W 004°27'0 0.0
2018-Feb-12 17:30N 48°23' W 004°27'0 0.0
2018-Feb-12 17:00N 48°23' W 004°27'0 0.0
2018-Feb-12 16:30N 48°23' W 004°27'0 0.0
2018-Feb-12 16:00N 48°23' W 004°27'0 0.0
2018-Feb-12 15:30N 48°23' W 004°27'0 0.0
2018-Feb-12 15:00N 48°23' W 004°27'0 0.0
2018-Feb-12 14:30N 48°23' W 004°27'0 0.0
2018-Feb-12 14:00N 48°23' W 004°27'0 0.0
2018-Feb-12 13:30N 48°23' W 004°27'0 0.2
2018-Feb-12 13:00N 48°23' W 004°27'2 4.4
2018-Feb-12 12:31N 48°21' W 004°30'713.1
2018-Feb-12 12:01N 48°19' W 004°39'611.3
2018-Feb-12 11:30N 48°17' W 004°47'612.2
2018-Feb-12 11:00N 48°13' W 004°54'612.2
2018-Feb-12 10:30N 48°09' W 005°01'612.3
2018-Feb-12 10:00N 48°05' W 005°08'5 9.3
2018-Feb-12 09:29N 48°00' W 005°09'510.5
2018-Feb-12 08:58N 47°57' W 005°03'510.7
2018-Feb-12 08:29N 47°53' W 004°58'510.5
2018-Feb-12 08:00N 47°49' W 004°52'710.5
2018-Feb-12 07:23N 47°44' W 004°46'410.3
2018-Feb-12 07:00N 47°42' W 004°42'610.1
2018-Feb-12 06:24N 47°38' W 004°35'510.0
2018-Feb-12 05:55N 47°35' W 004°29'5 9.6
2018-Feb-12 05:26N 47°32' W 004°24'5 9.9
2018-Feb-12 04:56N 47°29' W 004°18'23 9.8
2018-Feb-12 02:33N 47°14' W 003°51'110.4
2018-Feb-12 02:30N 47°14' W 003°50'510.0
2018-Feb-12 01:57N 47°11' W 003°44'4 9.8
2018-Feb-12 01:30N 47°08' W 003°39'6 9.8
2018-Feb-12 00:53N 47°04' W 003°32'56 9.6
2018-Feb-11 19:06N 46°29' W 002°28'110.2
2018-Feb-11 18:58N 46°29' W 002°27'510.1
2018-Feb-11 18:30N 46°26' W 002°21'510.2
2018-Feb-11 18:00N 46°23' W 002°16'510.1
2018-Feb-11 17:30N 46°19' W 002°10'510.2
2018-Feb-11 17:00N 46°16' W 002°04'510.2
2018-Feb-11 16:30N 46°13' W 001°58'510.4
2018-Feb-11 16:00N 46°10' W 001°52'5 9.9
2018-Feb-11 15:30N 46°09' W 001°46'510.3
2018-Feb-11 15:00N 46°08' W 001°38'510.6
2018-Feb-11 14:30N 46°07' W 001°31'611.2
2018-Feb-11 14:00N 46°07' W 001°23'510.1
2018-Feb-11 13:30N 46°07' W 001°15'3 5.1
2018-Feb-11 12:59N 46°09' W 001°14'0 0.0
2018-Feb-11 12:29N 46°09' W 001°14'0 0.0
2018-Feb-11 11:59N 46°09' W 001°14'0 0.0
2018-Feb-11 11:29N 46°09' W 001°14'0 0.0
2018-Feb-11 10:59N 46°09' W 001°14'0 0.0
2018-Feb-11 10:29N 46°09' W 001°14'0 0.0
2018-Feb-11 09:59N 46°09' W 001°14'0 0.0
2018-Feb-11 09:29N 46°09' W 001°14'0 0.0
2018-Feb-11 08:59N 46°09' W 001°14'0 0.0
2018-Feb-11 08:29N 46°09' W 001°14'0 0.0
2018-Feb-11 07:59N 46°09' W 001°14'0 0.0
2018-Feb-11 07:29N 46°09' W 001°14'0 0.0
2018-Feb-11 06:59N 46°09' W 001°14'0 0.0
2018-Feb-11 06:29N 46°09' W 001°14'0 0.0
2018-Feb-11 05:59N 46°09' W 001°14'0 0.0
2018-Feb-11 05:29N 46°09' W 001°14'0 0.0
2018-Feb-11 04:59N 46°09' W 001°14'0 0.0
2018-Feb-11 04:29N 46°09' W 001°14'0 0.0
2018-Feb-11 03:59N 46°09' W 001°14'0 0.0
2018-Feb-11 03:29N 46°09' W 001°14'0 0.0
2018-Feb-11 02:59N 46°09' W 001°14'0 0.0
2018-Feb-11 02:29N 46°09' W 001°14'0 0.0
2018-Feb-11 01:59N 46°09' W 001°14'0 0.0
2018-Feb-11 01:29N 46°09' W 001°14'0 0.0
2018-Feb-11 01:00N 46°09' W 001°14'0 0.4
2018-Feb-11 00:30N 46°09' W 001°14'4 7.1
2018-Feb-11 00:00N 46°06' W 001°15'1 1.3
2018-Feb-10 23:28N 46°05' W 001°15'0 0.0
2018-Feb-10 22:58N 46°05' W 001°15'0 0.0
2018-Feb-10 22:28N 46°05' W 001°15'0 0.0
2018-Feb-10 21:58N 46°05' W 001°15'0 0.0
2018-Feb-10 21:28N 46°05' W 001°15'0 0.0
2018-Feb-10 20:58N 46°05' W 001°15'0 0.1
2018-Feb-10 20:31N 46°05' W 001°15'2 4.6
2018-Feb-10 20:00N 46°06' W 001°18'612.5
2018-Feb-10 19:30N 46°07' W 001°27'611.8
2018-Feb-10 19:00N 46°07' W 001°36'510.6
2018-Feb-10 18:30N 46°02' W 001°38'510.8
2018-Feb-10 18:00N 45°57' W 001°38'16 9.9
2018-Feb-10 16:25N 45°42' W 001°30'510.0
2018-Feb-10 15:58N 45°38' W 001°26'4 8.4
2018-Feb-10 15:30N 45°37' W 001°21'510.1
2018-Feb-10 14:58N 45°39' W 001°15'511.3
2018-Feb-10 14:30N 45°38' W 001°07'611.1
2018-Feb-10 14:00N 45°34' W 001°02'611.7
2018-Feb-10 13:30N 45°30' W 000°57'611.0
2018-Feb-10 13:00N 45°25' W 000°52'510.7
2018-Feb-10 12:30N 45°21' W 000°48'810.5
2018-Feb-10 11:45N 45°13' W 000°44'133 4.6
2018-Feb-09 07:00N 47°08' W 002°22'4 8.0
2018-Feb-09 06:30N 47°11' W 002°18'10 9.9
2018-Feb-09 05:30N 47°18' W 002°08'  

Dump ship's entire track history